M Y Suncoco — SY7908 — position and weather

sailwx.info

Track history (hours):
 
Tides and Currents Weather Stations Pressure Air Temp Water Temp Dewpoint Dewpoint Depression Visibility Wind Speed Wind Dir Waves Ship Positions

M Y Suncoco

Last reported at 2014-Oct-21 10:33 UTC. Time now 2014-Oct-25 13:21 UTC.
Position N 37°48' E 023°46'.

Length 32 m; draft 2.8 m.

Type: Other ship. MMSI: 239112700.

Date/timePositionNaut miles runAvg speedWind from/ knotsBaromVisibWave heightAir tempDewpointWater temp
2014-Oct-21 10:33N 37°48' E 023°46'0 0.0
2014-Oct-21 09:33N 37°48' E 023°46'0 0.0
2014-Oct-21 08:33N 37°48' E 023°46'0 0.0
2014-Oct-21 07:33N 37°48' E 023°46'0 0.0
2014-Oct-21 06:33N 37°48' E 023°46'0 0.0
2014-Oct-21 05:33N 37°48' E 023°46'0 0.0
2014-Oct-21 04:33N 37°48' E 023°46'0 0.0
2014-Oct-21 03:33N 37°48' E 023°46'0 0.0
2014-Oct-21 02:33N 37°48' E 023°46'0 0.0
2014-Oct-21 01:33N 37°48' E 023°46'0 0.0
2014-Oct-21 00:33N 37°48' E 023°46'0 0.0
2014-Oct-20 23:33N 37°48' E 023°46'0 0.0
2014-Oct-20 22:33N 37°48' E 023°46'0 0.0
2014-Oct-20 21:33N 37°48' E 023°46'0 0.0
2014-Oct-20 20:33N 37°48' E 023°46'0 0.0
2014-Oct-20 19:33N 37°48' E 023°46'0 0.0
2014-Oct-20 18:33N 37°48' E 023°46'0 0.0
2014-Oct-20 17:33N 37°48' E 023°46'0 0.0
2014-Oct-20 16:33N 37°48' E 023°46'0 0.0
2014-Oct-20 15:33N 37°48' E 023°46'0 0.0
2014-Oct-20 14:33N 37°48' E 023°46'0 0.0
2014-Oct-20 13:33N 37°48' E 023°46'3 2.6
2014-Oct-20 12:33N 37°47' E 023°43'1111.2
2014-Oct-20 11:33N 37°47' E 023°29'4 3.6
2014-Oct-20 10:32N 37°44' E 023°26'0 0.0
2014-Oct-20 09:33N 37°44' E 023°26'0 0.0
2014-Oct-20 08:33N 37°44' E 023°26'7 6.8
2014-Oct-20 07:29N 37°37' E 023°26'4 0.2
2014-Oct-19 08:23N 37°34' E 023°24'4 0.2
2014-Oct-18 11:32N 37°30' E 023°27'6 5.9
2014-Oct-18 10:29N 37°24' E 023°26'52 1.1
2014-Oct-16 09:33N 37°28' E 024°32'1111.2
2014-Oct-16 08:33N 37°30' E 024°45'10 9.9
2014-Oct-16 07:33N 37°28' E 024°57'2 1.8
2014-Oct-16 06:26N 37°26' E 024°57'0 0.0
2014-Oct-16 05:33N 37°26' E 024°57'0 0.0
2014-Oct-16 04:33N 37°26' E 024°57'0 0.0
2014-Oct-16 03:31N 37°26' E 024°57'0 0.0
2014-Oct-16 02:31N 37°26' E 024°57'0 0.0
2014-Oct-16 01:30N 37°26' E 024°57'0 0.0
2014-Oct-16 00:30N 37°26' E 024°57'0 0.0
2014-Oct-15 23:32N 37°26' E 024°57'0 0.0
2014-Oct-15 22:07N 37°26' E 024°57'0 0.0
2014-Oct-15 21:17N 37°26' E 024°57'0 0.0
2014-Oct-15 20:31N 37°26' E 024°57'0 0.0
2014-Oct-15 19:29N 37°26' E 024°57'0 0.0
2014-Oct-15 18:32N 37°26' E 024°57'0 0.0
2014-Oct-15 17:32N 37°26' E 024°57'0 0.0
2014-Oct-15 16:32N 37°26' E 024°57'0 0.0
2014-Oct-15 15:30N 37°26' E 024°57'0 0.0
2014-Oct-15 14:32N 37°26' E 024°57'9 8.8
2014-Oct-15 13:33N 37°21' E 025°05'1010.1
2014-Oct-15 12:33N 37°12' E 025°12'5 5.1
2014-Oct-15 11:33N 37°08' E 025°14'0 0.0
2014-Oct-15 10:33N 37°08' E 025°14'0 0.0
2014-Oct-15 09:33N 37°08' E 025°14'0 0.0
2014-Oct-15 08:33N 37°08' E 025°14'0 0.0
2014-Oct-15 07:33N 37°08' E 025°14'0 0.0
2014-Oct-15 06:33N 37°08' E 025°14'7 6.7
2014-Oct-15 05:33N 37°06' E 025°22'0 0.0
2014-Oct-15 04:33N 37°06' E 025°22'0 0.0
2014-Oct-15 03:33N 37°06' E 025°22'0 0.0
2014-Oct-15 02:33N 37°06' E 025°22'0 0.0
2014-Oct-15 01:33N 37°06' E 025°22'0 0.0
2014-Oct-15 00:33N 37°06' E 025°22'0 0.0
2014-Oct-14 23:33N 37°06' E 025°22'0 0.0
2014-Oct-14 22:33N 37°06' E 025°22'0 0.0
2014-Oct-14 21:33N 37°06' E 025°22'0 0.0
2014-Oct-14 20:33N 37°06' E 025°22'0 0.0
2014-Oct-14 19:33N 37°06' E 025°22'0 0.0
2014-Oct-14 18:33N 37°06' E 025°22'0 0.0
2014-Oct-14 17:33N 37°06' E 025°22'0 0.0
2014-Oct-14 16:33N 37°06' E 025°22'0 0.0
2014-Oct-14 15:33N 37°06' E 025°22'1 1.4
2014-Oct-14 14:33N 37°07' E 025°21'1211.9
2014-Oct-14 13:34N 37°19' E 025°20'6 5.6
2014-Oct-14 12:33N 37°25' E 025°20'0 0.0
2014-Oct-14 11:33N 37°25' E 025°20'0 0.0
2014-Oct-14 10:33N 37°25' E 025°20'0 0.0
2014-Oct-14 09:33N 37°25' E 025°20'4 4.1
2014-Oct-14 08:33N 37°26' E 025°15'1111.4
2014-Oct-14 07:33N 37°30' E 025°02'1111.0
2014-Oct-14 06:33N 37°33' E 024°49'  
Track history (hours):
 
Tides and Currents Weather Stations Pressure Air Temp Water Temp Dewpoint Dewpoint Depression Visibility Wind Speed Wind Dir Waves Ship Positions

M Y Suncoco

Last reported at 2014-Oct-21 10:33 UTC. Time now 2014-Oct-25 13:21 UTC.
Position N 37°48' E 023°46'.

Length 32 m; draft 2.8 m.

Type: Other ship. MMSI: 239112700.

Date/timePositionNaut miles runAvg speedWind from/ knotsBaromVisibWave heightAir tempDewpointWater temp
2014-Oct-21 10:33N 37°48' E 023°46'0 0.0
2014-Oct-21 09:33N 37°48' E 023°46'0 0.0
2014-Oct-21 08:33N 37°48' E 023°46'0 0.0
2014-Oct-21 07:33N 37°48' E 023°46'0 0.0
2014-Oct-21 06:33N 37°48' E 023°46'0 0.0
2014-Oct-21 05:33N 37°48' E 023°46'0 0.0
2014-Oct-21 04:33N 37°48' E 023°46'0 0.0
2014-Oct-21 03:33N 37°48' E 023°46'0 0.0
2014-Oct-21 02:33N 37°48' E 023°46'0 0.0
2014-Oct-21 01:33N 37°48' E 023°46'0 0.0
2014-Oct-21 00:33N 37°48' E 023°46'0 0.0
2014-Oct-20 23:33N 37°48' E 023°46'0 0.0
2014-Oct-20 22:33N 37°48' E 023°46'0 0.0
2014-Oct-20 21:33N 37°48' E 023°46'0 0.0
2014-Oct-20 20:33N 37°48' E 023°46'0 0.0
2014-Oct-20 19:33N 37°48' E 023°46'0 0.0
2014-Oct-20 18:33N 37°48' E 023°46'0 0.0
2014-Oct-20 17:33N 37°48' E 023°46'0 0.0
2014-Oct-20 16:33N 37°48' E 023°46'0 0.0
2014-Oct-20 15:33N 37°48' E 023°46'0 0.0
2014-Oct-20 14:33N 37°48' E 023°46'0 0.0
2014-Oct-20 13:33N 37°48' E 023°46'3 2.6
2014-Oct-20 12:33N 37°47' E 023°43'1111.2
2014-Oct-20 11:33N 37°47' E 023°29'4 3.6
2014-Oct-20 10:32N 37°44' E 023°26'0 0.0
2014-Oct-20 09:33N 37°44' E 023°26'0 0.0
2014-Oct-20 08:33N 37°44' E 023°26'7 6.8
2014-Oct-20 07:29N 37°37' E 023°26'4 0.2
2014-Oct-19 08:23N 37°34' E 023°24'4 0.2
2014-Oct-18 11:32N 37°30' E 023°27'6 5.9
2014-Oct-18 10:29N 37°24' E 023°26'52 1.1
2014-Oct-16 09:33N 37°28' E 024°32'1111.2
2014-Oct-16 08:33N 37°30' E 024°45'10 9.9
2014-Oct-16 07:33N 37°28' E 024°57'2 1.8
2014-Oct-16 06:26N 37°26' E 024°57'0 0.0
2014-Oct-16 05:33N 37°26' E 024°57'0 0.0
2014-Oct-16 04:33N 37°26' E 024°57'0 0.0
2014-Oct-16 03:31N 37°26' E 024°57'0 0.0
2014-Oct-16 02:31N 37°26' E 024°57'0 0.0
2014-Oct-16 01:30N 37°26' E 024°57'0 0.0
2014-Oct-16 00:30N 37°26' E 024°57'0 0.0
2014-Oct-15 23:32N 37°26' E 024°57'0 0.0
2014-Oct-15 22:07N 37°26' E 024°57'0 0.0
2014-Oct-15 21:17N 37°26' E 024°57'0 0.0
2014-Oct-15 20:31N 37°26' E 024°57'0 0.0
2014-Oct-15 19:29N 37°26' E 024°57'0 0.0
2014-Oct-15 18:32N 37°26' E 024°57'0 0.0
2014-Oct-15 17:32N 37°26' E 024°57'0 0.0
2014-Oct-15 16:32N 37°26' E 024°57'0 0.0
2014-Oct-15 15:30N 37°26' E 024°57'0 0.0
2014-Oct-15 14:32N 37°26' E 024°57'9 8.8
2014-Oct-15 13:33N 37°21' E 025°05'1010.1
2014-Oct-15 12:33N 37°12' E 025°12'5 5.1
2014-Oct-15 11:33N 37°08' E 025°14'0 0.0
2014-Oct-15 10:33N 37°08' E 025°14'0 0.0
2014-Oct-15 09:33N 37°08' E 025°14'0 0.0
2014-Oct-15 08:33N 37°08' E 025°14'0 0.0
2014-Oct-15 07:33N 37°08' E 025°14'0 0.0
2014-Oct-15 06:33N 37°08' E 025°14'7 6.7
2014-Oct-15 05:33N 37°06' E 025°22'0 0.0
2014-Oct-15 04:33N 37°06' E 025°22'0 0.0
2014-Oct-15 03:33N 37°06' E 025°22'0 0.0
2014-Oct-15 02:33N 37°06' E 025°22'0 0.0
2014-Oct-15 01:33N 37°06' E 025°22'0 0.0
2014-Oct-15 00:33N 37°06' E 025°22'0 0.0
2014-Oct-14 23:33N 37°06' E 025°22'0 0.0
2014-Oct-14 22:33N 37°06' E 025°22'0 0.0
2014-Oct-14 21:33N 37°06' E 025°22'0 0.0
2014-Oct-14 20:33N 37°06' E 025°22'0 0.0
2014-Oct-14 19:33N 37°06' E 025°22'0 0.0
2014-Oct-14 18:33N 37°06' E 025°22'0 0.0
2014-Oct-14 17:33N 37°06' E 025°22'0 0.0
2014-Oct-14 16:33N 37°06' E 025°22'0 0.0
2014-Oct-14 15:33N 37°06' E 025°22'1 1.4
2014-Oct-14 14:33N 37°07' E 025°21'1211.9
2014-Oct-14 13:34N 37°19' E 025°20'6 5.6
2014-Oct-14 12:33N 37°25' E 025°20'0 0.0
2014-Oct-14 11:33N 37°25' E 025°20'0 0.0
2014-Oct-14 10:33N 37°25' E 025°20'0 0.0
2014-Oct-14 09:33N 37°25' E 025°20'4 4.1
2014-Oct-14 08:33N 37°26' E 025°15'1111.4
2014-Oct-14 07:33N 37°30' E 025°02'1111.0
2014-Oct-14 06:33N 37°33' E 024°49'  

Dump ship's entire track history